createdAt,value
2017-11-10T00:02:10.545Z,93.70
2017-11-10T00:04:40.028Z,93.60
2017-11-10T00:07:08.891Z,93.50
2017-11-10T00:09:36.548Z,93.90
2017-11-10T00:12:06.101Z,93.40
2017-11-10T00:14:38.597Z,93.40
2017-11-10T00:17:07.038Z,93.40
2017-11-10T00:19:37.545Z,93.50
2017-11-10T00:22:05.204Z,93.50
2017-11-10T00:24:33.003Z,93.40
2017-11-10T00:27:01.700Z,93.30
2017-11-10T00:32:17.449Z,93.40
2017-11-10T00:34:51.984Z,93.30
2017-11-10T00:37:27.796Z,93.30
2017-11-10T00:40:04.266Z,93.30
2017-11-10T00:42:35.662Z,93.30
2017-11-10T00:45:06.998Z,93.30
2017-11-10T00:47:50.624Z,93.20
2017-11-10T00:50:30.026Z,93.30
2017-11-10T00:53:09.295Z,93.20
2017-11-10T00:55:40.077Z,93.10
2017-11-10T00:58:08.602Z,93.50
2017-11-10T01:00:43.972Z,93.30
2017-11-10T01:03:12.810Z,93.30
2017-11-10T01:05:44.614Z,93.40
2017-11-10T01:08:14.465Z,93.40
2017-11-10T01:10:43.399Z,93.30
2017-11-10T01:13:12.278Z,93.30
2017-11-10T01:15:40.787Z,93.10
2017-11-10T01:18:10.202Z,92.80
2017-11-10T01:20:37.948Z,93.00
2017-11-10T01:23:06.946Z,92.90
2017-11-10T01:25:35.497Z,93.00
2017-11-10T01:30:42.868Z,92.40
2017-11-10T01:33:29.476Z,92.20
2017-11-10T01:36:01.624Z,92.40
2017-11-10T01:38:32.921Z,92.60
2017-11-10T01:41:22.508Z,92.70
2017-11-10T01:44:01.014Z,92.50
2017-11-10T01:46:32.054Z,92.50
2017-11-10T01:49:03.021Z,92.70
2017-11-10T01:51:32.998Z,92.60
2017-11-10T01:54:21.572Z,92.70
2017-11-10T01:56:58.099Z,92.90
2017-11-10T01:59:34.152Z,93.00
2017-11-10T02:02:02.285Z,93.00
2017-11-10T02:04:32.507Z,93.10
2017-11-10T02:07:18.069Z,93.00
2017-11-10T02:09:47.245Z,92.90
2017-11-10T02:12:15.803Z,92.80
2017-11-10T02:15:01.302Z,92.90
2017-11-10T02:17:32.974Z,93.10
2017-11-10T02:20:03.419Z,93.20
2017-11-10T02:22:54.114Z,93.20
2017-11-10T02:25:29.151Z,93.20
2017-11-10T02:30:44.665Z,93.40
2017-11-10T02:33:13.967Z,93.40
2017-11-10T02:35:42.753Z,93.30
2017-11-10T02:38:10.712Z,93.50
2017-11-10T02:40:39.195Z,93.50
2017-11-10T02:43:09.316Z,93.60
2017-11-10T02:45:36.959Z,93.60
2017-11-10T02:48:04.743Z,93.50
2017-11-10T02:50:33.446Z,93.60
2017-11-10T02:53:01.602Z,93.70
2017-11-10T02:55:33.784Z,94.30
2017-11-10T02:58:18.301Z,93.70
2017-11-10T03:00:58.454Z,93.60
2017-11-10T03:03:31.496Z,93.90
2017-11-10T03:06:03.505Z,93.80
2017-11-10T03:08:52.309Z,94.10
2017-11-10T03:11:26.567Z,94.00
2017-11-10T03:14:01.821Z,94.10
2017-11-10T03:16:29.497Z,94.10
2017-11-10T03:18:58.409Z,94.10
2017-11-10T03:21:41.877Z,93.80
2017-11-10T03:24:24.623Z,93.70
2017-11-10T03:27:00.165Z,93.60
2017-11-10T03:29:30.461Z,92.80
2017-11-10T03:32:00.525Z,92.80
2017-11-10T03:34:33.269Z,92.90
2017-11-10T03:37:03.849Z,93.10
2017-11-10T03:39:35.761Z,93.10
2017-11-10T03:42:03.438Z,93.20
2017-11-10T03:44:33.544Z,93.00
2017-11-10T03:47:03.948Z,93.00
2017-11-10T03:49:33.085Z,93.10
2017-11-10T03:52:02.991Z,92.80
2017-11-10T03:57:10.019Z,90.70
2017-11-10T03:59:45.517Z,90.30
2017-11-10T04:02:13.265Z,90.40
2017-11-10T04:04:41.025Z,90.10
2017-11-10T04:07:08.717Z,90.70
2017-11-10T04:12:15.669Z,89.30
2017-11-10T04:14:44.343Z,90.10
2017-11-10T04:17:12.299Z,90.00
2017-11-10T04:19:48.277Z,90.40
2017-11-10T04:22:17.923Z,90.30
2017-11-10T04:24:45.829Z,90.40
2017-11-10T04:27:13.541Z,90.80
2017-11-10T04:29:42.077Z,90.50
2017-11-10T04:32:23.702Z,90.50
2017-11-10T04:34:53.238Z,90.40
2017-11-10T04:37:38.695Z,90.90
2017-11-10T04:40:07.654Z,90.90
2017-11-10T04:42:35.346Z,89.30
2017-11-10T04:45:04.536Z,85.10
2017-11-10T04:47:34.297Z,89.10
2017-11-10T04:50:04.606Z,88.40
2017-11-10T04:52:40.268Z,90.00
2017-11-10T04:55:27.298Z,90.50
2017-11-10T04:58:03.043Z,89.40
2017-11-10T05:00:33.286Z,88.70
2017-11-10T05:03:03.262Z,88.70
2017-11-10T05:05:34.637Z,89.30
2017-11-10T05:08:04.474Z,89.00
2017-11-10T05:10:40.309Z,89.90
2017-11-10T05:13:10.047Z,90.10
2017-11-10T05:15:38.912Z,90.20
2017-11-10T05:18:07.434Z,90.40
2017-11-10T05:20:36.131Z,90.40
2017-11-10T05:23:04.392Z,90.70
2017-11-10T05:25:34.101Z,90.90
2017-11-10T05:28:05.108Z,91.10
2017-11-10T05:30:34.889Z,91.10
2017-11-10T05:33:07.425Z,91.20
2017-11-10T05:35:38.485Z,88.40
2017-11-10T05:38:11.042Z,88.40
2017-11-10T05:40:38.829Z,87.90
2017-11-10T05:43:07.962Z,90.10
2017-11-10T05:45:37.803Z,90.20
2017-11-10T05:48:05.586Z,90.20
2017-11-10T05:50:34.375Z,90.40
2017-11-10T05:53:04.485Z,88.90
2017-11-10T05:55:33.563Z,88.70
2017-11-10T05:58:03.955Z,89.00
2017-11-10T06:00:35.490Z,89.90
2017-11-10T06:03:03.652Z,89.60
2017-11-10T06:05:33.503Z,89.00
2017-11-10T06:08:01.631Z,89.70
2017-11-10T06:10:33.466Z,90.20
2017-11-10T06:13:01.957Z,90.50
2017-11-10T06:15:30.373Z,90.30
2017-11-10T06:17:58.665Z,89.30
2017-11-10T06:20:28.565Z,88.50
2017-11-10T06:22:58.827Z,87.40
2017-11-10T06:25:27.431Z,88.50
2017-11-10T06:27:56.164Z,87.40
2017-11-10T06:30:29.301Z,87.30
2017-11-10T06:33:00.727Z,86.60
2017-11-10T06:35:36.141Z,87.60
2017-11-10T06:38:06.636Z,84.60
2017-11-10T06:40:34.433Z,84.40
2017-11-10T06:43:02.721Z,82.90
2017-11-10T06:45:33.873Z,83.10
2017-11-10T06:48:03.581Z,83.10
2017-11-10T06:50:31.468Z,83.40
2017-11-10T06:52:59.801Z,82.60
2017-11-10T06:55:29.936Z,83.70
2017-11-10T06:57:57.646Z,83.50
2017-11-10T07:00:28.335Z,82.30
2017-11-10T07:02:57.155Z,81.30
2017-11-10T07:05:25.075Z,80.70
2017-11-10T07:07:53.122Z,80.20
2017-11-10T07:10:23.027Z,79.90
2017-11-10T07:12:56.646Z,79.90
2017-11-10T07:15:29.907Z,79.20
2017-11-10T07:18:01.200Z,80.10
2017-11-10T07:20:33.053Z,79.80
2017-11-10T07:23:03.269Z,79.30
2017-11-10T07:25:33.826Z,79.30
2017-11-10T07:28:03.605Z,79.10
2017-11-10T07:30:33.770Z,78.20
2017-11-10T07:33:05.885Z,77.90
2017-11-10T07:35:35.498Z,77.90
2017-11-10T07:38:06.151Z,77.50
2017-11-10T07:40:34.406Z,77.50
2017-11-10T07:43:05.916Z,76.60
2017-11-10T07:45:34.718Z,77.20
2017-11-10T07:48:03.544Z,77.30
2017-11-10T07:50:32.296Z,76.80
2017-11-10T07:53:01.840Z,75.80
2017-11-10T07:55:30.521Z,76.90
2017-11-10T07:57:59.197Z,76.10
2017-11-10T08:00:27.461Z,75.80
2017-11-10T08:02:56.727Z,76.00
2017-11-10T08:05:33.617Z,75.50
2017-11-10T08:08:03.145Z,75.50
2017-11-10T08:10:33.919Z,73.60
2017-11-10T08:13:02.538Z,73.50
2017-11-10T08:15:40.550Z,74.10
2017-11-10T08:18:09.052Z,73.70
2017-11-10T08:20:36.588Z,73.60
2017-11-10T08:23:04.163Z,76.10
2017-11-10T08:25:32.698Z,73.00
2017-11-10T08:28:02.799Z,73.60
2017-11-10T08:30:31.849Z,71.80
2017-11-10T08:33:02.042Z,71.70
2017-11-10T08:35:30.813Z,72.60
2017-11-10T08:38:00.344Z,71.90
2017-11-10T08:40:31.980Z,71.90
2017-11-10T08:43:00.729Z,70.50
2017-11-10T08:45:29.369Z,71.70
2017-11-10T08:47:59.361Z,72.00
2017-11-10T08:50:29.227Z,72.00
2017-11-10T08:52:59.418Z,70.80
2017-11-10T08:55:27.750Z,71.90
2017-11-10T08:57:58.018Z,72.00
2017-11-10T09:00:28.850Z,71.30
2017-11-10T09:03:00.353Z,71.30
2017-11-10T09:05:30.737Z,71.20
2017-11-10T09:08:00.178Z,71.50
2017-11-10T09:10:29.180Z,70.40
2017-11-10T09:12:59.806Z,70.10
2017-11-10T09:15:30.185Z,70.40
2017-11-10T09:18:02.671Z,71.70
2017-11-10T09:20:31.246Z,71.70
2017-11-10T09:22:59.996Z,70.90
2017-11-10T09:25:28.601Z,72.20
2017-11-10T09:27:59.353Z,72.60
2017-11-10T09:30:31.689Z,72.50
2017-11-10T09:33:06.449Z,71.10
2017-11-10T09:38:45.265Z,71.90
2017-11-10T09:41:31.588Z,70.40
2017-11-10T09:44:01.651Z,70.90
2017-11-10T09:46:33.947Z,72.60
2017-11-10T09:49:21.491Z,73.20
2017-11-10T09:55:13.954Z,71.70
2017-11-10T09:57:57.694Z,71.70
2017-11-10T10:00:46.655Z,71.00
2017-11-10T10:03:22.610Z,71.20
2017-11-10T10:09:03.900Z,71.20
2017-11-10T10:11:49.920Z,70.10
2017-11-10T10:14:23.882Z,70.20
2017-11-10T10:16:58.150Z,70.00
2017-11-10T10:19:42.529Z,72.80
2017-11-10T10:22:11.253Z,72.80
2017-11-10T10:24:39.562Z,70.40
2017-11-10T10:27:07.137Z,70.30
2017-11-10T10:29:34.660Z,70.90
2017-11-10T10:32:02.533Z,69.60
2017-11-10T10:34:32.032Z,69.50
2017-11-10T10:37:01.020Z,69.70
2017-11-10T10:39:29.225Z,70.70
2017-11-10T10:41:58.427Z,69.90
2017-11-10T10:44:27.570Z,70.40
2017-11-10T10:46:55.861Z,70.40
2017-11-10T10:49:25.252Z,70.80
2017-11-10T10:51:58.134Z,71.40
2017-11-10T10:54:26.687Z,70.50
2017-11-10T10:56:56.130Z,71.20
2017-11-10T10:59:26.965Z,71.20
2017-11-10T11:01:55.324Z,71.40
2017-11-10T11:04:24.990Z,72.00
2017-11-10T11:06:54.069Z,73.40
2017-11-10T11:09:23.638Z,73.90
2017-11-10T11:11:54.147Z,73.10
2017-11-10T11:14:24.543Z,73.60
2017-11-10T11:16:56.156Z,73.90
2017-11-10T11:19:25.124Z,74.10
2017-11-10T11:21:55.152Z,74.90
2017-11-10T11:24:26.576Z,76.20
2017-11-10T11:26:57.762Z,74.70
2017-11-10T11:29:29.850Z,74.60
2017-11-10T11:32:01.410Z,74.80
2017-11-10T11:34:31.314Z,74.80
2017-11-10T11:36:59.970Z,76.60
2017-11-10T11:39:30.953Z,76.60
2017-11-10T11:42:00.216Z,77.20
2017-11-10T11:44:46.001Z,77.60
2017-11-10T11:47:30.618Z,78.10
2017-11-10T11:52:58.943Z,79.30
2017-11-10T11:55:30.758Z,80.60
2017-11-10T11:57:59.542Z,82.10
2017-11-10T12:00:32.940Z,81.60
2017-11-10T12:03:02.895Z,81.40
2017-11-10T12:05:32.452Z,81.90
2017-11-10T12:08:01.918Z,81.70
2017-11-10T12:10:30.814Z,82.20
2017-11-10T12:13:01.114Z,82.80
2017-11-10T12:15:30.046Z,83.40
2017-11-10T12:18:00.909Z,83.50
2017-11-10T12:20:29.233Z,83.50
2017-11-10T12:22:59.256Z,84.40
2017-11-10T12:25:28.048Z,84.40
2017-11-10T12:27:57.203Z,84.80
2017-11-10T12:30:25.544Z,86.40
2017-11-10T12:32:57.459Z,84.60
2017-11-10T12:35:27.900Z,85.40
2017-11-10T12:37:57.142Z,85.30
2017-11-10T12:40:27.052Z,85.20
2017-11-10T12:42:56.939Z,85.10
2017-11-10T12:45:26.120Z,85.40
2017-11-10T12:47:56.113Z,86.70
2017-11-10T12:50:24.286Z,86.70
2017-11-10T12:52:54.301Z,85.70
2017-11-10T12:55:25.420Z,84.10
2017-11-10T12:57:54.433Z,86.50
2017-11-10T13:00:24.139Z,86.40
2017-11-10T13:02:57.069Z,86.30
2017-11-10T13:05:25.658Z,87.00
2017-11-10T13:07:54.165Z,86.00
2017-11-10T13:10:26.236Z,86.30
2017-11-10T13:12:55.029Z,86.30
2017-11-10T13:15:23.666Z,87.50
2017-11-10T13:17:54.063Z,85.90
2017-11-10T13:20:22.614Z,85.90
2017-11-10T13:22:55.516Z,86.60
2017-11-10T13:25:25.375Z,87.80
2017-11-10T13:27:55.349Z,86.70
2017-11-10T13:30:24.407Z,88.20
2017-11-10T13:32:54.942Z,88.50
2017-11-10T13:35:24.068Z,88.40
2017-11-10T13:37:52.985Z,88.70
2017-11-10T13:40:24.990Z,88.00
2017-11-10T13:42:55.273Z,88.60
2017-11-10T13:45:24.202Z,88.30
2017-11-10T13:47:53.957Z,88.30
2017-11-10T13:50:24.952Z,89.10
2017-11-10T13:52:53.509Z,89.10
2017-11-10T13:55:23.152Z,89.60
2017-11-10T13:57:54.598Z,89.60
2017-11-10T14:00:24.922Z,88.50
2017-11-10T14:02:52.695Z,90.40
2017-11-10T14:05:20.444Z,90.00
2017-11-10T14:07:52.566Z,90.30
2017-11-10T14:10:20.973Z,88.70
2017-11-10T14:12:49.510Z,88.50
2017-11-10T14:15:17.179Z,87.90
2017-11-10T14:17:46.110Z,87.60
2017-11-10T14:20:14.699Z,87.40
2017-11-10T14:22:42.605Z,88.50
2017-11-10T14:25:12.261Z,88.30
2017-11-10T14:27:39.964Z,87.30
2017-11-10T14:30:07.700Z,88.40
2017-11-10T14:32:35.347Z,87.50
2017-11-10T14:35:03.853Z,88.00
2017-11-10T14:37:32.361Z,87.80
2017-11-10T14:39:59.985Z,88.00
2017-11-10T14:42:27.877Z,86.50
2017-11-10T14:44:56.016Z,86.60
2017-11-10T14:47:24.549Z,85.30
2017-11-10T14:49:53.552Z,86.40
2017-11-10T14:52:22.035Z,86.20
2017-11-10T14:54:49.737Z,86.50
2017-11-10T14:57:17.422Z,85.10
2017-11-10T14:59:45.025Z,87.00
2017-11-10T15:02:12.622Z,86.40
2017-11-10T15:04:40.354Z,85.50
2017-11-10T15:07:08.625Z,85.50
2017-11-10T15:09:36.219Z,85.60
2017-11-10T15:12:03.962Z,85.40
2017-11-10T15:14:33.380Z,84.80
2017-11-10T15:17:01.016Z,84.80
2017-11-10T15:19:29.745Z,85.80
2017-11-10T15:21:58.229Z,85.30
2017-11-10T15:24:27.629Z,85.10
2017-11-10T15:26:56.180Z,85.00
2017-11-10T15:29:23.898Z,84.60
2017-11-10T15:31:52.432Z,85.20
2017-11-10T15:34:20.383Z,85.20
2017-11-10T15:36:48.143Z,84.40
2017-11-10T15:39:15.829Z,85.10
2017-11-10T15:41:44.246Z,85.00
2017-11-10T15:44:12.628Z,84.30
2017-11-10T15:46:40.963Z,85.70
2017-11-10T15:49:09.095Z,84.90
2017-11-10T15:51:36.677Z,86.00
2017-11-10T15:54:04.241Z,85.20
2017-11-10T15:56:31.831Z,85.50
2017-11-10T15:59:00.182Z,85.30
2017-11-10T16:01:29.103Z,85.20
2017-11-10T16:03:58.427Z,85.80
2017-11-10T16:06:27.553Z,83.90
2017-11-10T16:08:55.943Z,84.30
2017-11-10T16:11:26.031Z,84.50
2017-11-10T16:13:53.884Z,85.30
2017-11-10T16:16:22.330Z,83.50
2017-11-10T16:18:49.923Z,84.40
2017-11-10T16:21:18.236Z,86.10
2017-11-10T16:23:46.393Z,85.20
2017-11-10T16:26:14.013Z,85.20
2017-11-10T16:28:42.485Z,85.20
2017-11-10T16:31:10.774Z,86.20
2017-11-10T16:33:39.110Z,86.40
2017-11-10T16:36:06.652Z,86.40
2017-11-10T16:38:34.232Z,87.10
2017-11-10T16:41:02.412Z,87.30
2017-11-10T16:43:30.842Z,87.60
2017-11-10T16:45:58.470Z,88.50
2017-11-10T16:48:26.852Z,89.00
2017-11-10T16:50:58.260Z,89.00
2017-11-10T16:53:31.601Z,89.50
2017-11-10T16:55:59.208Z,89.00
2017-11-10T16:58:26.810Z,89.50
2017-11-10T17:00:56.336Z,89.90
2017-11-10T17:03:24.128Z,89.80
2017-11-10T17:05:52.866Z,89.70
2017-11-10T17:08:21.388Z,90.00
2017-11-10T17:10:50.325Z,89.40
2017-11-10T17:13:19.450Z,90.00
2017-11-10T17:15:49.544Z,89.30
2017-11-10T17:18:18.073Z,89.70
2017-11-10T17:20:47.393Z,88.60
2017-11-10T17:23:15.717Z,88.90
2017-11-10T17:25:44.789Z,89.70
2017-11-10T17:28:12.321Z,89.60
2017-11-10T17:30:40.665Z,90.00
2017-11-10T17:33:08.208Z,89.90
2017-11-10T17:35:35.841Z,89.40
2017-11-10T17:38:03.385Z,89.10
2017-11-10T17:40:31.544Z,90.00
2017-11-10T17:42:59.744Z,89.80
2017-11-10T17:45:28.078Z,89.80
2017-11-10T17:47:57.143Z,89.80
2017-11-10T17:50:25.526Z,89.80
2017-11-10T17:52:54.792Z,89.50
2017-11-10T17:55:23.954Z,89.50
2017-11-10T17:57:54.997Z,89.70
2017-11-10T18:00:24.763Z,90.60
2017-11-10T18:02:53.347Z,90.20
2017-11-10T18:05:23.681Z,90.10
2017-11-10T18:07:53.374Z,90.60
2017-11-10T18:10:23.819Z,90.50
2017-11-10T18:12:55.573Z,90.40
2017-11-10T18:15:27.061Z,90.20
2017-11-10T18:20:45.756Z,90.50
2017-11-10T18:23:13.284Z,90.20
2017-11-10T18:25:41.826Z,90.20
2017-11-10T18:28:10.352Z,90.30
2017-11-10T18:30:37.921Z,90.40
2017-11-10T18:33:05.468Z,90.60
2017-11-10T18:35:34.812Z,90.80
2017-11-10T18:38:02.940Z,90.30
2017-11-10T18:40:30.530Z,90.20
2017-11-10T18:42:59.004Z,90.50
2017-11-10T18:45:27.387Z,90.30
2017-11-10T18:47:55.429Z,90.30
2017-11-10T18:50:23.105Z,90.20
2017-11-10T18:52:51.243Z,90.30
2017-11-10T18:58:21.400Z,90.00
2017-11-10T19:00:54.860Z,90.10
2017-11-10T19:03:25.945Z,90.10
2017-11-10T19:05:54.748Z,89.90
2017-11-10T19:08:24.056Z,90.10
2017-11-10T19:10:55.828Z,89.90
2017-11-10T19:13:24.830Z,89.30
2017-11-10T19:15:54.112Z,90.10
2017-11-10T19:18:23.895Z,89.70
2017-11-10T19:20:53.330Z,89.60
2017-11-10T19:23:25.439Z,89.50
2017-11-10T19:25:54.888Z,89.40
2017-11-10T19:28:26.168Z,89.40
2017-11-10T19:30:55.107Z,89.60
2017-11-10T19:33:24.645Z,89.90
2017-11-10T19:35:55.191Z,89.70
2017-11-10T19:38:24.312Z,89.70
2017-11-10T19:40:54.497Z,89.60
2017-11-10T19:43:24.268Z,89.30
2017-11-10T19:45:55.633Z,89.70
2017-11-10T19:48:27.471Z,89.10
2017-11-10T19:50:56.415Z,89.40
2017-11-10T19:53:25.403Z,89.40
2017-11-10T19:55:53.164Z,89.40
2017-11-10T19:58:21.723Z,89.60
2017-11-10T20:00:49.402Z,90.00
2017-11-10T20:03:17.031Z,90.30
2017-11-10T20:05:44.601Z,90.00
2017-11-10T20:08:14.231Z,90.30
2017-11-10T20:10:41.841Z,90.30
2017-11-10T20:13:09.413Z,90.30
2017-11-10T20:15:37.084Z,90.30
2017-11-10T20:18:04.750Z,90.70
2017-11-10T20:20:32.317Z,90.40
2017-11-10T20:22:59.916Z,90.70
2017-11-10T20:25:27.473Z,90.40
2017-11-10T20:27:55.898Z,90.60
2017-11-10T20:30:23.497Z,90.40
2017-11-10T20:32:51.240Z,90.30
2017-11-10T20:35:20.407Z,90.20
2017-11-10T20:37:48.680Z,90.30
2017-11-10T20:40:17.324Z,89.80
2017-11-10T20:42:45.700Z,90.10
2017-11-10T20:45:13.376Z,90.00
2017-11-10T20:47:41.561Z,89.80
2017-11-10T20:50:09.099Z,89.50
2017-11-10T20:52:38.205Z,88.60
2017-11-10T20:55:05.745Z,88.50
2017-11-10T20:57:33.396Z,88.20
2017-11-10T21:00:01.106Z,88.70
2017-11-10T21:02:28.701Z,88.50
2017-11-10T21:04:56.248Z,88.60
2017-11-10T21:07:24.608Z,88.30
2017-11-10T21:09:52.183Z,88.30
2017-11-10T21:12:19.904Z,87.90
2017-11-10T21:14:47.587Z,88.00
2017-11-10T21:17:16.012Z,88.40
2017-11-10T21:19:44.213Z,88.40
2017-11-10T21:22:11.789Z,88.20
2017-11-10T21:24:41.003Z,87.80
2017-11-10T21:27:10.188Z,88.10
2017-11-10T21:29:41.238Z,87.70
2017-11-10T21:32:08.837Z,88.20
2017-11-10T21:34:38.127Z,88.20
2017-11-10T21:37:07.503Z,88.60
2017-11-10T21:39:35.079Z,88.40
2017-11-10T21:42:06.487Z,88.20
2017-11-10T21:44:35.596Z,88.20
2017-11-10T21:47:03.184Z,88.30
2017-11-10T21:49:31.887Z,88.30
2017-11-10T21:51:59.653Z,87.70
2017-11-10T21:54:27.327Z,88.00
2017-11-10T21:56:55.646Z,88.70
2017-11-10T21:59:25.375Z,88.50
2017-11-10T22:01:53.339Z,89.30
2017-11-10T22:04:22.392Z,87.90
2017-11-10T22:06:50.158Z,88.00
2017-11-10T22:09:17.811Z,87.30
2017-11-10T22:11:45.465Z,87.90
2017-11-10T22:14:13.690Z,88.00
2017-11-10T22:16:41.327Z,88.00
2017-11-10T22:19:08.862Z,88.00
2017-11-10T22:21:36.437Z,87.90
2017-11-10T22:24:03.975Z,88.30
2017-11-10T22:26:31.504Z,88.00
2017-11-10T22:29:00.952Z,88.30
2017-11-10T22:31:30.053Z,88.20
2017-11-10T22:33:58.341Z,88.30
2017-11-10T22:36:26.817Z,88.00
2017-11-10T22:38:55.220Z,88.20
2017-11-10T22:41:25.704Z,88.90
2017-11-10T22:43:55.206Z,89.30
2017-11-10T22:46:24.575Z,89.50
2017-11-10T22:48:54.830Z,89.70
2017-11-10T22:51:28.153Z,89.80
2017-11-10T22:54:02.436Z,89.80
2017-11-10T22:56:30.759Z,89.80
2017-11-10T22:59:00.103Z,90.00
2017-11-10T23:01:28.110Z,90.10
2017-11-10T23:03:56.698Z,90.20
2017-11-10T23:06:25.493Z,90.10
2017-11-10T23:08:55.513Z,90.40
2017-11-10T23:11:25.087Z,90.50
2017-11-10T23:13:53.436Z,90.50
2017-11-10T23:16:22.801Z,90.60
2017-11-10T23:18:53.946Z,90.70
2017-11-10T23:21:24.695Z,90.70
2017-11-10T23:23:52.848Z,90.60
2017-11-10T23:26:27.117Z,90.70
2017-11-10T23:28:56.902Z,90.90
2017-11-10T23:31:25.945Z,90.90
2017-11-10T23:33:58.904Z,91.00
2017-11-10T23:36:29.231Z,91.00
2017-11-10T23:39:01.302Z,90.90
2017-11-10T23:41:32.705Z,90.90
2017-11-10T23:44:03.860Z,90.90
2017-11-10T23:46:35.154Z,90.90
2017-11-10T23:49:06.066Z,90.80
2017-11-10T23:51:35.798Z,90.80
2017-11-10T23:54:04.398Z,90.90
2017-11-10T23:56:36.556Z,90.90
2017-11-10T23:59:05.923Z,91.10
